Nearby METAR Reports

 

KSJC - San Jose, California, USA
Distance from station: NE 14km
Updated: 25/06/2022 20:53
Clear
Clear
 Wind from NW
Wind: NW 13 km/h
Temperature: 28°C
Heat Index: 27°C
Dew Point: 13°C
Humidity: 40%
Barometer: 1012.9 hPa
Clouds: Clear
Visibility: 16 km
2022/06/25 19:53 KSJC 251953Z 31007KT 270V360 10SM CLR 28/13 A2991 RMK AO2 SLP127 T02780133
KNUQ - Moffett Nas/Mtn, California, USA
Distance from station: N 14km
Updated: 25/06/2022 20:55
Clear
Clear
 Wind from varies
Wind: varies 11 km/h
Temperature: 24°C
Dew Point: 13°C
Humidity: 50%
Barometer: 1013.2 hPa
Clouds: Clear
Visibility: 14 km
2022/06/25 19:55 KNUQ 251955Z AUTO VRB06KT 9SM CLR 24/13 A2992 RMK AO2
 
KPAO - Palo Alto, California, USA
Distance from station: NNW 23km
Updated: 25/06/2022 19:47
NOT Current
Clear
Clear
 Wind from NNW
Wind: NNW 19 km/h
Temperature: 21°C
Dew Point: 14°C
Humidity: 64%
Barometer: 1013.5 hPa
Clouds: Clear
Visibility: 16 km
2022/06/25 18:47 KPAO 251847Z 34010KT 10SM SKC 21/14 A2993
KRHV - San Jose/Reid, California, USA
Distance from station: ENE 19km
Updated: 25/06/2022 20:47
Clear
Clear
 Wind from WNW
Wind: WNW 13 km/h
Temperature: 29°C
Dew Point: 13°C
Humidity: 37%
Barometer: 1012.9 hPa
Clouds: Clear
Visibility: 16 km
2022/06/25 19:47 KRHV 251947Z 29007KT 10SM SKC 29/13 A2991
 
KOAK - Oakland, California, USA
Distance from station: NNW 50km
Updated: 25/06/2022 20:53
Clear
Clear
 Wind from WNW
Wind: WNW 26 km/h
Temperature: 20°C
Dew Point: 12°C
Humidity: 60%
Barometer: 1013.9 hPa
Clouds: Clear
Visibility: 14 km
2022/06/25 19:53 KOAK 251953Z 30014KT 9SM CLR 20/12 A2994 RMK AO2 SLP137 T02000117
KSQL - San Carlos Airpo, California, USA
Distance from station: NW 34km
Updated: 25/06/2022 20:52
Clear
Clear
 Wind from N
Wind: N 20 km/h
Temperature: 22°C
Dew Point: 13°C
Humidity: 57%
Barometer: 1013.9 hPa
Clouds: Clear
Visibility: 16 km
2022/06/25 19:52 KSQL 251952Z 35011KT 10SM CLR 22/13 A2994
 
KSFO - San Francisco, California, USA
Distance from station: NW 49km
Updated: 25/06/2022 20:56
Few Clouds
Few Clouds
 Wind from NW
Wind: NW 33 km/h
Temperature: 19°C
Dew Point: 12°C
Humidity: 64%
Barometer: 1013.5 hPa
Clouds: Few Clouds
Visibility: 16 km
Cloud details: Few Clouds 244 m
2022/06/25 19:56 KSFO 251956Z 31018KT 10SM FEW008 19/12 A2993 RMK AO2 PK WND 30028/1934 SLP134 T01940117
KE16 - San Martin, California, USA
Distance from station: ESE 43km
Updated: 25/06/2022 20:55
Clear
Clear
 Wind from E
Wind: E 6 km/h
Temperature: 32°C
Dew Point: 7°C
Humidity: 21%
Barometer: 1012.9 hPa
Clouds: Clear
Visibility: 16 km
2022/06/25 19:55 KE16 251955Z AUTO 10003KT 10SM CLR 32/07 A2991 RMK AO2
 
KWVI - Watsonville, California, USA
Distance from station: SSE 44km
Updated: 25/06/2022 20:53
Clear
Clear
 Wind from SW
Wind: SW 17 km/h
Temperature: 19°C
Dew Point: 11°C
Humidity: 60%
Barometer: 1014.6 hPa
Clouds: Clear
Visibility: 16 km
2022/06/25 19:53 KWVI 251953Z AUTO 22009KT 10SM CLR 19/11 A2996 RMK AO2 SLP145 T01940111
KHAF - Half Moon Bay, California, USA
Distance from station: WNW 50km
Updated: 25/06/2022 20:55
Mist, Clear
Mist, Clear
 Wind from WSW
Wind: WSW 13 km/h
Temperature: 15°C
Dew Point: 13°C
Humidity: 88%
Barometer: 1015.2 hPa
Summary: Mist
Clouds: Clear
Visibility: 6 km
2022/06/25 19:55 KHAF 251955Z AUTO 25007KT 4SM BR CLR 15/13 A2998 RMK AO2
 
KHWD - Hayward, California, USA
Distance from station: N 44km
Updated: 25/06/2022 20:54
Clear
Clear
 Wind from WNW
Wind: WNW 24 km/h
Temperature: 23°C
Dew Point: 13°C
Humidity: 53%
Barometer: 1013.2 hPa
Clouds: Clear
Visibility: 16 km
2022/06/25 19:54 KHWD 251954Z 29013KT 10SM CLR 23/13 A2992 RMK AO2 SLP141 T02330133
KLVK - Livermore, California, USA
Distance from station: NNE 51km
Updated: 25/06/2022 20:53
Clear
Clear
 Wind from WNW
Wind: WNW 17 km/h
Temperature: 34°C
Dew Point: 4°C
Humidity: 15%
Barometer: 1011.9 hPa
Clouds: Clear
Visibility: 16 km
2022/06/25 19:53 KLVK 251953Z 29009KT 10SM CLR 34/04 A2988 RMK AO2 SLP114 T03390039